sensor_id;sensor_type;location;lat;lon;timestamp;P1;durP1;ratioP1;P2;durP2;ratioP2
16699;SDS011;8466;52.286;21.124;2022-10-16T00:01:46;34.77;;;32.07;;
16699;SDS011;8466;52.286;21.124;2022-10-16T00:04:15;42.67;;;39.50;;
16699;SDS011;8466;52.286;21.124;2022-10-16T00:06:44;29.90;;;27.10;;
16699;SDS011;8466;52.286;21.124;2022-10-16T00:09:12;38.83;;;35.97;;
16699;SDS011;8466;52.286;21.124;2022-10-16T00:11:42;42.93;;;39.90;;
16699;SDS011;8466;52.286;21.124;2022-10-16T00:14:13;41.47;;;38.53;;
16699;SDS011;8466;52.286;21.124;2022-10-16T00:16:43;35.77;;;33.20;;
16699;SDS011;8466;52.286;21.124;2022-10-16T00:19:11;35.17;;;32.60;;
16699;SDS011;8466;52.286;21.124;2022-10-16T00:21:40;36.83;;;34.10;;
16699;SDS011;8466;52.286;21.124;2022-10-16T00:24:09;33.07;;;30.60;;
16699;SDS011;8466;52.286;21.124;2022-10-16T00:26:38;31.57;;;29.20;;
16699;SDS011;8466;52.286;21.124;2022-10-16T00:29:09;32.97;;;30.47;;
16699;SDS011;8466;52.286;21.124;2022-10-16T00:31:38;29.27;;;26.97;;
16699;SDS011;8466;52.286;21.124;2022-10-16T00:34:07;29.20;;;26.60;;
16699;SDS011;8466;52.286;21.124;2022-10-16T00:36:35;29.73;;;27.37;;
16699;SDS011;8466;52.286;21.124;2022-10-16T00:39:04;30.77;;;28.27;;
16699;SDS011;8466;52.286;21.124;2022-10-16T00:41:33;29.53;;;26.67;;
16699;SDS011;8466;52.286;21.124;2022-10-16T00:44:03;29.33;;;26.50;;
16699;SDS011;8466;52.286;21.124;2022-10-16T00:46:53;31.00;;;28.33;;
16699;SDS011;8466;52.286;21.124;2022-10-16T00:49:22;32.60;;;30.03;;
16699;SDS011;8466;52.286;21.124;2022-10-16T00:51:51;33.97;;;31.37;;
16699;SDS011;8466;52.286;21.124;2022-10-16T00:54:22;36.93;;;34.13;;
16699;SDS011;8466;52.286;21.124;2022-10-16T00:56:52;46.73;;;43.23;;
16699;SDS011;8466;52.286;21.124;2022-10-16T00:59:23;35.50;;;32.60;;
16699;SDS011;8466;52.286;21.124;2022-10-16T01:01:56;39.97;;;36.83;;
16699;SDS011;8466;52.286;21.124;2022-10-16T01:04:26;31.60;;;28.90;;
16699;SDS011;8466;52.286;21.124;2022-10-16T01:07:03;32.73;;;29.73;;
16699;SDS011;8466;52.286;21.124;2022-10-16T01:09:40;31.07;;;28.47;;
16699;SDS011;8466;52.286;21.124;2022-10-16T01:12:20;33.30;;;30.60;;
16699;SDS011;8466;52.286;21.124;2022-10-16T01:14:56;31.37;;;28.27;;
16699;SDS011;8466;52.286;21.124;2022-10-16T01:17:32;31.20;;;28.40;;
16699;SDS011;8466;52.286;21.124;2022-10-16T01:20:08;32.10;;;29.30;;
16699;SDS011;8466;52.286;21.124;2022-10-16T01:22:43;31.43;;;28.63;;
16699;SDS011;8466;52.286;21.124;2022-10-16T01:25:23;29.00;;;26.40;;
16699;SDS011;8466;52.286;21.124;2022-10-16T01:28:01;33.50;;;30.63;;
16699;SDS011;8466;52.286;21.124;2022-10-16T01:30:33;31.47;;;28.77;;
16699;SDS011;8466;52.286;21.124;2022-10-16T01:33:04;34.20;;;31.23;;
16699;SDS011;8466;52.286;21.124;2022-10-16T01:35:38;31.67;;;28.97;;
16699;SDS011;8466;52.286;21.124;2022-10-16T01:38:11;28.73;;;25.93;;
16699;SDS011;8466;52.286;21.124;2022-10-16T01:40:44;31.63;;;28.60;;
16699;SDS011;8466;52.286;21.124;2022-10-16T01:43:20;29.87;;;27.10;;
16699;SDS011;8466;52.286;21.124;2022-10-16T01:45:52;29.73;;;27.10;;
16699;SDS011;8466;52.286;21.124;2022-10-16T01:48:22;27.77;;;25.37;;
16699;SDS011;8466;52.286;21.124;2022-10-16T01:50:53;29.93;;;26.87;;
16699;SDS011;8466;52.286;21.124;2022-10-16T01:53:25;30.47;;;27.77;;
16699;SDS011;8466;52.286;21.124;2022-10-16T01:55:55;31.07;;;28.37;;
16699;SDS011;8466;52.286;21.124;2022-10-16T01:58:27;30.33;;;27.53;;
16699;SDS011;8466;52.286;21.124;2022-10-16T02:01:01;31.43;;;28.70;;
16699;SDS011;8466;52.286;21.124;2022-10-16T02:03:32;34.40;;;31.30;;
16699;SDS011;8466;52.286;21.124;2022-10-16T02:06:02;34.37;;;31.27;;
16699;SDS011;8466;52.286;21.124;2022-10-16T02:08:32;36.70;;;33.47;;
16699;SDS011;8466;52.286;21.124;2022-10-16T02:11:02;36.50;;;33.47;;
16699;SDS011;8466;52.286;21.124;2022-10-16T02:13:33;34.67;;;31.83;;
16699;SDS011;8466;52.286;21.124;2022-10-16T02:16:05;31.17;;;28.37;;
16699;SDS011;8466;52.286;21.124;2022-10-16T02:18:34;33.20;;;30.30;;
16699;SDS011;8466;52.286;21.124;2022-10-16T02:21:05;30.93;;;28.23;;
16699;SDS011;8466;52.286;21.124;2022-10-16T02:23:41;33.20;;;30.07;;
16699;SDS011;8466;52.286;21.124;2022-10-16T02:26:15;31.03;;;28.40;;
16699;SDS011;8466;52.286;21.124;2022-10-16T02:28:53;30.37;;;27.50;;
16699;SDS011;8466;52.286;21.124;2022-10-16T02:31:27;32.60;;;29.63;;
16699;SDS011;8466;52.286;21.124;2022-10-16T02:34:00;34.10;;;30.63;;
16699;SDS011;8466;52.286;21.124;2022-10-16T02:36:32;34.37;;;31.27;;
16699;SDS011;8466;52.286;21.124;2022-10-16T02:39:03;33.23;;;30.17;;
16699;SDS011;8466;52.286;21.124;2022-10-16T02:41:33;33.20;;;30.17;;
16699;SDS011;8466;52.286;21.124;2022-10-16T02:44:03;36.03;;;32.63;;
16699;SDS011;8466;52.286;21.124;2022-10-16T02:46:32;32.07;;;29.27;;
16699;SDS011;8466;52.286;21.124;2022-10-16T02:49:01;34.33;;;31.10;;
16699;SDS011;8466;52.286;21.124;2022-10-16T02:51:29;35.93;;;32.83;;
16699;SDS011;8466;52.286;21.124;2022-10-16T02:53:58;35.07;;;31.97;;
16699;SDS011;8466;52.286;21.124;2022-10-16T02:56:27;32.80;;;29.97;;
16699;SDS011;8466;52.286;21.124;2022-10-16T02:58:56;34.53;;;31.40;;
16699;SDS011;8466;52.286;21.124;2022-10-16T03:01:26;33.97;;;30.87;;
16699;SDS011;8466;52.286;21.124;2022-10-16T03:03:55;33.00;;;30.00;;
16699;SDS011;8466;52.286;21.124;2022-10-16T03:06:24;33.10;;;30.27;;
16699;SDS011;8466;52.286;21.124;2022-10-16T03:08:53;34.17;;;31.10;;
16699;SDS011;8466;52.286;21.124;2022-10-16T03:11:22;33.13;;;30.20;;
16699;SDS011;8466;52.286;21.124;2022-10-16T03:13:50;34.23;;;31.20;;
16699;SDS011;8466;52.286;21.124;2022-10-16T03:16:19;33.17;;;30.17;;
16699;SDS011;8466;52.286;21.124;2022-10-16T03:18:49;31.67;;;29.07;;
16699;SDS011;8466;52.286;21.124;2022-10-16T03:21:18;32.20;;;29.40;;
16699;SDS011;8466;52.286;21.124;2022-10-16T03:23:47;33.67;;;30.73;;
16699;SDS011;8466;52.286;21.124;2022-10-16T03:26:16;32.37;;;29.27;;
16699;SDS011;8466;52.286;21.124;2022-10-16T03:28:44;32.40;;;29.60;;
16699;SDS011;8466;52.286;21.124;2022-10-16T03:31:13;32.23;;;29.33;;
16699;SDS011;8466;52.286;21.124;2022-10-16T03:33:42;35.63;;;32.43;;
16699;SDS011;8466;52.286;21.124;2022-10-16T03:36:12;34.17;;;31.07;;
16699;SDS011;8466;52.286;21.124;2022-10-16T03:38:41;34.37;;;31.27;;
16699;SDS011;8466;52.286;21.124;2022-10-16T03:41:10;42.72;;;39.47;;
16699;SDS011;8466;52.286;21.124;2022-10-16T03:43:38;39.47;;;36.30;;
16699;SDS011;8466;52.286;21.124;2022-10-16T03:46:07;39.37;;;36.07;;
16699;SDS011;8466;52.286;21.124;2022-10-16T03:48:36;35.63;;;32.53;;
16699;SDS011;8466;52.286;21.124;2022-10-16T03:51:06;33.30;;;30.20;;
16699;SDS011;8466;52.286;21.124;2022-10-16T03:53:36;32.27;;;29.17;;
16699;SDS011;8466;52.286;21.124;2022-10-16T03:56:05;30.97;;;28.17;;
16699;SDS011;8466;52.286;21.124;2022-10-16T03:58:34;31.87;;;28.87;;
16699;SDS011;8466;52.286;21.124;2022-10-16T04:01:02;30.07;;;27.13;;
16699;SDS011;8466;52.286;21.124;2022-10-16T04:03:31;32.50;;;29.57;;
16699;SDS011;8466;52.286;21.124;2022-10-16T04:06:00;32.17;;;29.03;;
16699;SDS011;8466;52.286;21.124;2022-10-16T04:08:29;31.07;;;28.43;;
16699;SDS011;8466;52.286;21.124;2022-10-16T04:11:02;30.90;;;27.97;;
16699;SDS011;8466;52.286;21.124;2022-10-16T04:13:31;31.77;;;29.07;;
16699;SDS011;8466;52.286;21.124;2022-10-16T04:16:00;30.87;;;28.27;;
16699;SDS011;8466;52.286;21.124;2022-10-16T04:18:28;30.27;;;27.50;;
16699;SDS011;8466;52.286;21.124;2022-10-16T04:21:01;29.03;;;26.33;;
16699;SDS011;8466;52.286;21.124;2022-10-16T04:23:31;28.90;;;25.87;;
16699;SDS011;8466;52.286;21.124;2022-10-16T04:26:01;28.07;;;25.20;;
16699;SDS011;8466;52.286;21.124;2022-10-16T04:28:30;30.40;;;27.73;;
16699;SDS011;8466;52.286;21.124;2022-10-16T04:30:59;33.20;;;30.30;;
16699;SDS011;8466;52.286;21.124;2022-10-16T04:33:28;32.00;;;29.23;;
16699;SDS011;8466;52.286;21.124;2022-10-16T04:35:57;34.57;;;31.67;;
16699;SDS011;8466;52.286;21.124;2022-10-16T04:38:26;35.63;;;32.73;;
16699;SDS011;8466;52.286;21.124;2022-10-16T04:40:55;32.20;;;29.53;;
16699;SDS011;8466;52.286;21.124;2022-10-16T04:43:26;33.87;;;30.47;;
16699;SDS011;8466;52.286;21.124;2022-10-16T04:45:54;39.73;;;36.13;;
16699;SDS011;8466;52.286;21.124;2022-10-16T04:48:23;35.23;;;32.23;;
16699;SDS011;8466;52.286;21.124;2022-10-16T04:50:52;31.00;;;28.17;;
16699;SDS011;8466;52.286;21.124;2022-10-16T04:53:20;32.03;;;29.03;;
16699;SDS011;8466;52.286;21.124;2022-10-16T04:55:49;31.10;;;28.10;;
16699;SDS011;8466;52.286;21.124;2022-10-16T04:58:18;33.90;;;30.70;;
16699;SDS011;8466;52.286;21.124;2022-10-16T05:00:48;31.50;;;28.70;;
16699;SDS011;8466;52.286;21.124;2022-10-16T05:03:17;32.03;;;28.87;;
16699;SDS011;8466;52.286;21.124;2022-10-16T05:05:46;32.80;;;29.83;;
16699;SDS011;8466;52.286;21.124;2022-10-16T05:08:15;40.67;;;37.63;;
16699;SDS011;8466;52.286;21.124;2022-10-16T05:10:44;39.70;;;36.47;;
16699;SDS011;8466;52.286;21.124;2022-10-16T05:13:13;33.07;;;30.07;;
16699;SDS011;8466;52.286;21.124;2022-10-16T05:15:42;33.77;;;30.67;;
16699;SDS011;8466;52.286;21.124;2022-10-16T05:18:16;30.00;;;27.30;;
16699;SDS011;8466;52.286;21.124;2022-10-16T05:20:45;31.53;;;28.30;;
16699;SDS011;8466;52.286;21.124;2022-10-16T05:23:14;33.87;;;30.90;;
16699;SDS011;8466;52.286;21.124;2022-10-16T05:25:42;34.93;;;32.13;;
16699;SDS011;8466;52.286;21.124;2022-10-16T05:28:11;33.33;;;30.33;;
16699;SDS011;8466;52.286;21.124;2022-10-16T05:30:40;31.03;;;28.20;;
16699;SDS011;8466;52.286;21.124;2022-10-16T05:33:08;30.93;;;28.13;;
16699;SDS011;8466;52.286;21.124;2022-10-16T05:35:38;259.08;;;239.40;;
16699;SDS011;8466;52.286;21.124;2022-10-16T05:38:07;41.90;;;38.70;;
16699;SDS011;8466;52.286;21.124;2022-10-16T05:40:36;37.73;;;34.67;;
16699;SDS011;8466;52.286;21.124;2022-10-16T05:43:05;30.23;;;27.63;;
16699;SDS011;8466;52.286;21.124;2022-10-16T05:45:34;31.00;;;28.10;;
16699;SDS011;8466;52.286;21.124;2022-10-16T05:48:03;30.73;;;27.87;;
16699;SDS011;8466;52.286;21.124;2022-10-16T05:50:33;27.83;;;25.33;;
16699;SDS011;8466;52.286;21.124;2022-10-16T05:53:03;28.50;;;26.00;;
16699;SDS011;8466;52.286;21.124;2022-10-16T05:55:32;29.47;;;26.70;;
16699;SDS011;8466;52.286;21.124;2022-10-16T05:58:00;28.67;;;26.00;;
16699;SDS011;8466;52.286;21.124;2022-10-16T06:00:29;31.40;;;28.37;;
16699;SDS011;8466;52.286;21.124;2022-10-16T06:02:58;33.70;;;30.73;;
16699;SDS011;8466;52.286;21.124;2022-10-16T06:05:26;33.50;;;30.37;;
16699;SDS011;8466;52.286;21.124;2022-10-16T06:07:55;31.70;;;28.73;;
16699;SDS011;8466;52.286;21.124;2022-10-16T06:10:26;31.10;;;28.40;;
16699;SDS011;8466;52.286;21.124;2022-10-16T06:12:55;30.87;;;28.17;;
16699;SDS011;8466;52.286;21.124;2022-10-16T06:15:24;34.33;;;31.33;;
16699;SDS011;8466;52.286;21.124;2022-10-16T06:17:52;34.23;;;31.17;;
16699;SDS011;8466;52.286;21.124;2022-10-16T06:20:21;37.30;;;34.10;;
16699;SDS011;8466;52.286;21.124;2022-10-16T06:22:50;34.27;;;31.50;;
16699;SDS011;8466;52.286;21.124;2022-10-16T06:25:19;31.10;;;28.47;;
16699;SDS011;8466;52.286;21.124;2022-10-16T06:27:49;36.40;;;33.47;;
16699;SDS011;8466;52.286;21.124;2022-10-16T06:30:17;34.50;;;31.73;;
16699;SDS011;8466;52.286;21.124;2022-10-16T06:32:46;31.00;;;28.57;;
16699;SDS011;8466;52.286;21.124;2022-10-16T06:35:15;34.70;;;32.03;;
16699;SDS011;8466;52.286;21.124;2022-10-16T06:37:44;31.30;;;28.53;;
16699;SDS011;8466;52.286;21.124;2022-10-16T06:40:12;33.43;;;30.70;;
16699;SDS011;8466;52.286;21.124;2022-10-16T06:42:41;34.00;;;31.23;;
16699;SDS011;8466;52.286;21.124;2022-10-16T06:45:12;31.50;;;28.97;;
16699;SDS011;8466;52.286;21.124;2022-10-16T06:47:40;31.60;;;28.70;;
16699;SDS011;8466;52.286;21.124;2022-10-16T06:50:09;28.97;;;26.47;;
16699;SDS011;8466;52.286;21.124;2022-10-16T06:52:38;29.23;;;26.80;;
16699;SDS011;8466;52.286;21.124;2022-10-16T06:55:07;30.33;;;27.80;;
16699;SDS011;8466;52.286;21.124;2022-10-16T06:57:36;32.77;;;30.27;;
16699;SDS011;8466;52.286;21.124;2022-10-16T07:00:05;36.10;;;33.40;;
16699;SDS011;8466;52.286;21.124;2022-10-16T07:02:36;35.30;;;32.27;;
16699;SDS011;8466;52.286;21.124;2022-10-16T07:05:04;41.73;;;38.57;;
16699;SDS011;8466;52.286;21.124;2022-10-16T07:07:34;35.53;;;32.83;;
16699;SDS011;8466;52.286;21.124;2022-10-16T07:10:03;34.80;;;32.20;;
16699;SDS011;8466;52.286;21.124;2022-10-16T07:12:32;34.53;;;31.97;;
16699;SDS011;8466;52.286;21.124;2022-10-16T07:15:01;31.67;;;29.00;;
16699;SDS011;8466;52.286;21.124;2022-10-16T07:17:30;30.07;;;27.70;;
16699;SDS011;8466;52.286;21.124;2022-10-16T07:20:00;30.67;;;28.20;;
16699;SDS011;8466;52.286;21.124;2022-10-16T07:22:29;26.87;;;24.77;;
16699;SDS011;8466;52.286;21.124;2022-10-16T07:25:00;26.37;;;24.33;;
16699;SDS011;8466;52.286;21.124;2022-10-16T07:27:29;28.20;;;25.77;;
16699;SDS011;8466;52.286;21.124;2022-10-16T07:29:58;29.20;;;27.10;;
16699;SDS011;8466;52.286;21.124;2022-10-16T07:32:31;26.83;;;24.87;;
16699;SDS011;8466;52.286;21.124;2022-10-16T07:35:02;30.07;;;27.70;;
16699;SDS011;8466;52.286;21.124;2022-10-16T07:37:31;29.80;;;27.03;;
16699;SDS011;8466;52.286;21.124;2022-10-16T07:39:59;29.70;;;27.37;;
16699;SDS011;8466;52.286;21.124;2022-10-16T07:42:28;29.17;;;27.00;;
16699;SDS011;8466;52.286;21.124;2022-10-16T07:44:57;26.90;;;24.67;;
16699;SDS011;8466;52.286;21.124;2022-10-16T07:47:26;29.97;;;27.50;;
16699;SDS011;8466;52.286;21.124;2022-10-16T07:49:55;26.20;;;24.17;;
16699;SDS011;8466;52.286;21.124;2022-10-16T07:52:25;29.83;;;27.63;;
16699;SDS011;8466;52.286;21.124;2022-10-16T07:54:54;29.47;;;27.30;;
16699;SDS011;8466;52.286;21.124;2022-10-16T07:57:22;25.67;;;23.47;;
16699;SDS011;8466;52.286;21.124;2022-10-16T07:59:52;26.77;;;24.37;;
16699;SDS011;8466;52.286;21.124;2022-10-16T08:02:20;23.13;;;21.27;;
16699;SDS011;8466;52.286;21.124;2022-10-16T08:04:49;24.02;;;22.15;;
16699;SDS011;8466;52.286;21.124;2022-10-16T08:07:18;27.73;;;25.63;;
16699;SDS011;8466;52.286;21.124;2022-10-16T08:09:50;141.55;;;133.13;;
16699;SDS011;8466;52.286;21.124;2022-10-16T08:12:19;48.30;;;44.67;;
16699;SDS011;8466;52.286;21.124;2022-10-16T08:14:48;31.83;;;29.50;;
16699;SDS011;8466;52.286;21.124;2022-10-16T08:17:16;30.87;;;28.67;;
16699;SDS011;8466;52.286;21.124;2022-10-16T08:19:49;33.77;;;31.17;;
16699;SDS011;8466;52.286;21.124;2022-10-16T08:22:22;143.50;;;134.10;;
16699;SDS011;8466;52.286;21.124;2022-10-16T08:24:54;45.47;;;42.17;;
16699;SDS011;8466;52.286;21.124;2022-10-16T08:27:22;49.47;;;45.87;;
16699;SDS011;8466;52.286;21.124;2022-10-16T08:29:51;52.30;;;48.67;;
16699;SDS011;8466;52.286;21.124;2022-10-16T08:32:20;45.53;;;42.20;;
16699;SDS011;8466;52.286;21.124;2022-10-16T08:34:52;44.47;;;41.33;;
16699;SDS011;8466;52.286;21.124;2022-10-16T08:37:21;49.80;;;46.13;;
16699;SDS011;8466;52.286;21.124;2022-10-16T08:39:50;47.97;;;44.65;;
16699;SDS011;8466;52.286;21.124;2022-10-16T08:42:27;46.08;;;42.70;;
16699;SDS011;8466;52.286;21.124;2022-10-16T08:45:13;47.22;;;44.00;;
16699;SDS011;8466;52.286;21.124;2022-10-16T08:47:53;43.95;;;40.83;;
16699;SDS011;8466;52.286;21.124;2022-10-16T08:50:32;43.90;;;40.47;;
16699;SDS011;8466;52.286;21.124;2022-10-16T08:53:06;45.17;;;42.07;;
16699;SDS011;8466;52.286;21.124;2022-10-16T08:55:41;45.58;;;42.13;;
16699;SDS011;8466;52.286;21.124;2022-10-16T08:58:15;59.60;;;55.67;;
16699;SDS011;8466;52.286;21.124;2022-10-16T09:00:46;54.53;;;50.58;;
16699;SDS011;8466;52.286;21.124;2022-10-16T09:03:21;58.40;;;54.53;;
16699;SDS011;8466;52.286;21.124;2022-10-16T09:06:08;53.03;;;49.63;;
16699;SDS011;8466;52.286;21.124;2022-10-16T09:08:47;53.92;;;50.38;;
16699;SDS011;8466;52.286;21.124;2022-10-16T09:11:25;49.28;;;45.92;;
16699;SDS011;8466;52.286;21.124;2022-10-16T09:14:06;48.33;;;44.97;;
16699;SDS011;8466;52.286;21.124;2022-10-16T09:16:46;46.83;;;43.65;;
16699;SDS011;8466;52.286;21.124;2022-10-16T09:19:20;52.22;;;48.80;;
16699;SDS011;8466;52.286;21.124;2022-10-16T09:21:53;46.75;;;43.40;;
16699;SDS011;8466;52.286;21.124;2022-10-16T09:24:23;53.25;;;49.72;;
16699;SDS011;8466;52.286;21.124;2022-10-16T09:26:54;30.10;;;27.80;;
16699;SDS011;8466;52.286;21.124;2022-10-16T09:29:25;31.85;;;29.40;;
16699;SDS011;8466;52.286;21.124;2022-10-16T09:31:53;28.48;;;26.25;;
16699;SDS011;8466;52.286;21.124;2022-10-16T09:34:27;29.90;;;27.67;;
16699;SDS011;8466;52.286;21.124;2022-10-16T09:37:00;33.53;;;31.00;;
16699;SDS011;8466;52.286;21.124;2022-10-16T09:39:43;54.28;;;50.78;;
16699;SDS011;8466;52.286;21.124;2022-10-16T09:45:20;173.88;;;162.40;;
16699;SDS011;8466;52.286;21.124;2022-10-16T09:47:50;47.28;;;44.08;;
16699;SDS011;8466;52.286;21.124;2022-10-16T09:50:24;58.95;;;55.17;;
16699;SDS011;8466;52.286;21.124;2022-10-16T09:53:04;67.80;;;63.55;;
16699;SDS011;8466;52.286;21.124;2022-10-16T09:55:33;78.13;;;73.25;;
16699;SDS011;8466;52.286;21.124;2022-10-16T09:58:02;85.75;;;80.20;;
16699;SDS011;8466;52.286;21.124;2022-10-16T10:00:41;80.20;;;75.13;;
16699;SDS011;8466;52.286;21.124;2022-10-16T10:03:19;75.95;;;71.05;;
16699;SDS011;8466;52.286;21.124;2022-10-16T10:06:06;87.63;;;82.32;;
16699;SDS011;8466;52.286;21.124;2022-10-16T10:08:55;93.32;;;87.90;;
16699;SDS011;8466;52.286;21.124;2022-10-16T10:17:18;96.07;;;90.35;;
16699;SDS011;8466;52.286;21.124;2022-10-16T10:19:49;81.63;;;76.70;;
16699;SDS011;8466;52.286;21.124;2022-10-16T10:22:24;76.38;;;71.65;;
16699;SDS011;8466;52.286;21.124;2022-10-16T10:25:00;94.43;;;88.75;;
16699;SDS011;8466;52.286;21.124;2022-10-16T10:27:55;85.28;;;80.10;;
16699;SDS011;8466;52.286;21.124;2022-10-16T10:30:33;84.53;;;79.38;;
16699;SDS011;8466;52.286;21.124;2022-10-16T10:33:21;80.32;;;75.28;;
16699;SDS011;8466;52.286;21.124;2022-10-16T10:35:59;71.43;;;66.88;;
16699;SDS011;8466;52.286;21.124;2022-10-16T10:38:37;69.75;;;65.47;;
16699;SDS011;8466;52.286;21.124;2022-10-16T10:44:11;69.22;;;65.10;;
16699;SDS011;8466;52.286;21.124;2022-10-16T10:46:50;71.88;;;67.32;;
16699;SDS011;8466;52.286;21.124;2022-10-16T10:49:29;70.90;;;66.50;;
16699;SDS011;8466;52.286;21.124;2022-10-16T10:52:14;69.65;;;65.30;;
16699;SDS011;8466;52.286;21.124;2022-10-16T10:55:10;150.77;;;140.88;;
16699;SDS011;8466;52.286;21.124;2022-10-16T10:57:52;90.15;;;84.78;;
16699;SDS011;8466;52.286;21.124;2022-10-16T11:00:42;64.55;;;60.55;;
16699;SDS011;8466;52.286;21.124;2022-10-16T11:03:26;64.93;;;60.63;;
16699;SDS011;8466;52.286;21.124;2022-10-16T11:06:13;59.72;;;55.65;;
16699;SDS011;8466;52.286;21.124;2022-10-16T11:08:46;60.90;;;57.00;;
16699;SDS011;8466;52.286;21.124;2022-10-16T11:11:23;56.20;;;52.78;;
16699;SDS011;8466;52.286;21.124;2022-10-16T11:13:58;54.00;;;50.42;;
16699;SDS011;8466;52.286;21.124;2022-10-16T11:16:31;55.72;;;52.05;;
16699;SDS011;8466;52.286;21.124;2022-10-16T11:19:05;57.80;;;54.00;;
16699;SDS011;8466;52.286;21.124;2022-10-16T11:21:43;50.70;;;47.20;;
16699;SDS011;8466;52.286;21.124;2022-10-16T11:24:18;44.17;;;41.15;;
16699;SDS011;8466;52.286;21.124;2022-10-16T11:26:50;41.55;;;38.63;;
16699;SDS011;8466;52.286;21.124;2022-10-16T11:29:22;39.22;;;36.45;;
16699;SDS011;8466;52.286;21.124;2022-10-16T11:31:55;37.65;;;35.13;;
16699;SDS011;8466;52.286;21.124;2022-10-16T11:34:28;37.15;;;34.50;;
16699;SDS011;8466;52.286;21.124;2022-10-16T11:37:05;35.50;;;33.00;;
16699;SDS011;8466;52.286;21.124;2022-10-16T11:39:39;39.47;;;36.60;;
16699;SDS011;8466;52.286;21.124;2022-10-16T11:42:09;48.17;;;45.08;;
16699;SDS011;8466;52.286;21.124;2022-10-16T11:44:44;42.40;;;39.65;;
16699;SDS011;8466;52.286;21.124;2022-10-16T11:47:24;49.25;;;45.97;;
16699;SDS011;8466;52.286;21.124;2022-10-16T11:50:20;45.20;;;42.30;;
16699;SDS011;8466;52.286;21.124;2022-10-16T11:52:55;45.05;;;41.95;;
16699;SDS011;8466;52.286;21.124;2022-10-16T11:55:30;51.20;;;48.00;;
16699;SDS011;8466;52.286;21.124;2022-10-16T11:58:03;49.15;;;46.03;;
16699;SDS011;8466;52.286;21.124;2022-10-16T12:00:39;65.47;;;61.45;;
16699;SDS011;8466;52.286;21.124;2022-10-16T12:03:15;66.72;;;62.60;;
16699;SDS011;8466;52.286;21.124;2022-10-16T12:06:04;70.07;;;65.55;;
16699;SDS011;8466;52.286;21.124;2022-10-16T12:08:42;79.63;;;74.90;;
16699;SDS011;8466;52.286;21.124;2022-10-16T12:11:22;87.50;;;82.43;;
16699;SDS011;8466;52.286;21.124;2022-10-16T12:14:05;289.63;;;271.10;;
16699;SDS011;8466;52.286;21.124;2022-10-16T12:16:53;127.85;;;120.65;;
16699;SDS011;8466;52.286;21.124;2022-10-16T12:19:24;121.93;;;115.22;;
16699;SDS011;8466;52.286;21.124;2022-10-16T12:21:58;127.80;;;120.65;;
16699;SDS011;8466;52.286;21.124;2022-10-16T12:24:35;135.65;;;128.05;;
16699;SDS011;8466;52.286;21.124;2022-10-16T12:27:06;133.55;;;126.13;;
16699;SDS011;8466;52.286;21.124;2022-10-16T12:29:49;132.45;;;124.80;;
16699;SDS011;8466;52.286;21.124;2022-10-16T12:32:27;129.85;;;122.95;;
16699;SDS011;8466;52.286;21.124;2022-10-16T12:35:30;136.10;;;128.90;;
16699;SDS011;8466;52.286;21.124;2022-10-16T12:38:05;146.65;;;138.73;;
16699;SDS011;8466;52.286;21.124;2022-10-16T12:40:36;134.40;;;127.03;;
16699;SDS011;8466;52.286;21.124;2022-10-16T12:43:11;145.98;;;138.00;;
16699;SDS011;8466;52.286;21.124;2022-10-16T12:49:17;137.18;;;129.75;;
16699;SDS011;8466;52.286;21.124;2022-10-16T12:51:58;138.70;;;131.02;;
16699;SDS011;8466;52.286;21.124;2022-10-16T12:54:30;145.55;;;137.50;;
16699;SDS011;8466;52.286;21.124;2022-10-16T12:57:06;146.73;;;138.48;;
16699;SDS011;8466;52.286;21.124;2022-10-16T13:00:06;149.25;;;140.68;;
16699;SDS011;8466;52.286;21.124;2022-10-16T13:02:49;172.82;;;163.25;;
16699;SDS011;8466;52.286;21.124;2022-10-16T13:05:32;170.60;;;161.15;;
16699;SDS011;8466;52.286;21.124;2022-10-16T13:08:17;176.52;;;166.75;;
16699;SDS011;8466;52.286;21.124;2022-10-16T13:11:01;173.93;;;164.48;;
16699;SDS011;8466;52.286;21.124;2022-10-16T13:13:40;170.90;;;161.45;;
16699;SDS011;8466;52.286;21.124;2022-10-16T13:16:24;174.50;;;165.05;;
16699;SDS011;8466;52.286;21.124;2022-10-16T13:19:03;165.88;;;156.73;;
16699;SDS011;8466;52.286;21.124;2022-10-16T13:21:45;152.65;;;144.20;;
16699;SDS011;8466;52.286;21.124;2022-10-16T13:24:25;135.10;;;127.63;;
16699;SDS011;8466;52.286;21.124;2022-10-16T13:27:07;140.75;;;133.00;;
16699;SDS011;8466;52.286;21.124;2022-10-16T13:29:43;156.35;;;147.95;;
16699;SDS011;8466;52.286;21.124;2022-10-16T13:32:12;160.10;;;151.15;;
16699;SDS011;8466;52.286;21.124;2022-10-16T13:34:44;138.57;;;130.35;;
16699;SDS011;8466;52.286;21.124;2022-10-16T13:37:17;124.90;;;117.45;;
16699;SDS011;8466;52.286;21.124;2022-10-16T13:39:48;106.03;;;99.95;;
16699;SDS011;8466;52.286;21.124;2022-10-16T13:42:20;99.80;;;94.05;;
16699;SDS011;8466;52.286;21.124;2022-10-16T13:44:54;118.55;;;111.97;;
16699;SDS011;8466;52.286;21.124;2022-10-16T13:47:24;109.03;;;102.70;;
16699;SDS011;8466;52.286;21.124;2022-10-16T13:50:00;100.05;;;94.32;;
16699;SDS011;8466;52.286;21.124;2022-10-16T13:52:30;96.22;;;90.60;;
16699;SDS011;8466;52.286;21.124;2022-10-16T13:55:01;82.30;;;77.50;;
16699;SDS011;8466;52.286;21.124;2022-10-16T13:57:30;72.35;;;67.82;;
16699;SDS011;8466;52.286;21.124;2022-10-16T13:59:59;63.83;;;59.75;;
16699;SDS011;8466;52.286;21.124;2022-10-16T14:02:29;54.95;;;51.50;;
16699;SDS011;8466;52.286;21.124;2022-10-16T14:05:08;46.97;;;43.92;;
16699;SDS011;8466;52.286;21.124;2022-10-16T14:07:43;39.97;;;37.28;;
16699;SDS011;8466;52.286;21.124;2022-10-16T14:10:22;44.20;;;41.10;;
16699;SDS011;8466;52.286;21.124;2022-10-16T14:12:56;46.35;;;43.38;;
16699;SDS011;8466;52.286;21.124;2022-10-16T14:15:26;53.90;;;50.30;;
16699;SDS011;8466;52.286;21.124;2022-10-16T14:17:58;54.78;;;51.13;;
16699;SDS011;8466;52.286;21.124;2022-10-16T14:20:29;54.13;;;50.65;;
16699;SDS011;8466;52.286;21.124;2022-10-16T14:23:00;92.43;;;86.80;;
16699;SDS011;8466;52.286;21.124;2022-10-16T14:25:32;146.10;;;137.05;;
16699;SDS011;8466;52.286;21.124;2022-10-16T14:28:02;82.15;;;77.18;;
16699;SDS011;8466;52.286;21.124;2022-10-16T14:30:49;79.20;;;74.53;;
16699;SDS011;8466;52.286;21.124;2022-10-16T14:33:23;67.70;;;63.35;;
16699;SDS011;8466;52.286;21.124;2022-10-16T14:36:01;53.95;;;50.10;;
16699;SDS011;8466;52.286;21.124;2022-10-16T14:38:32;38.38;;;35.83;;
16699;SDS011;8466;52.286;21.124;2022-10-16T14:41:03;34.70;;;32.25;;
16699;SDS011;8466;52.286;21.124;2022-10-16T14:43:32;36.05;;;33.40;;
16699;SDS011;8466;52.286;21.124;2022-10-16T14:46:05;158.60;;;148.90;;
16699;SDS011;8466;52.286;21.124;2022-10-16T14:48:40;38.80;;;36.22;;
16699;SDS011;8466;52.286;21.124;2022-10-16T14:51:11;36.33;;;33.70;;
16699;SDS011;8466;52.286;21.124;2022-10-16T14:53:42;38.17;;;35.55;;
16699;SDS011;8466;52.286;21.124;2022-10-16T14:56:15;39.13;;;36.53;;
16699;SDS011;8466;52.286;21.124;2022-10-16T14:58:48;37.58;;;34.45;;
16699;SDS011;8466;52.286;21.124;2022-10-16T15:01:18;46.42;;;43.13;;
16699;SDS011;8466;52.286;21.124;2022-10-16T15:03:48;54.25;;;50.85;;
16699;SDS011;8466;52.286;21.124;2022-10-16T15:06:18;53.90;;;50.22;;